Comfort, North Carolina
Current Conditions -  °F | °C
As of 4:15 PM on Tuesday 21 Oct 2014 (Local Time) from KOAJ Reporting Station
Clear Clear  
Wind Chill: 75°   Ceiling: Unl
Heat Index: 75°   Visibility: 10mi
Dew Point: 48°   Wind: 6mph
Humidity: 38%   Direction: 230°SW
Pressure: 29.84"   Gusts: NA
Location:  35.01°N, 77.49°W
Report Text: KOAJ 212015Z AUTO 23005KT 10SM CLR 24/09 A2984 RMK AO1
Loading
Personal Weather Stations






























Interactive Weather Map New forecast layout! Learn more

10-Day Weather Forecast

Advertisements
Track Severe Weather on mobile